sensor_id;sensor_type;location;lat;lon;timestamp;temperature;humidity
296;DHT22;132;48.770;9.200;2022-11-20T00:00:51;5.90;1.00
296;DHT22;132;48.770;9.200;2022-11-20T00:03:37;5.90;1.00
296;DHT22;132;48.770;9.200;2022-11-20T00:06:25;5.90;1.00
296;DHT22;132;48.770;9.200;2022-11-20T00:09:13;5.90;1.00
296;DHT22;132;48.770;9.200;2022-11-20T00:11:59;6.00;1.00
296;DHT22;132;48.770;9.200;2022-11-20T00:14:46;6.00;1.00
296;DHT22;132;48.770;9.200;2022-11-20T00:17:33;6.00;1.00
296;DHT22;132;48.770;9.200;2022-11-20T00:20:20;6.30;1.00
296;DHT22;132;48.770;9.200;2022-11-20T00:23:06;6.10;1.00
296;DHT22;132;48.770;9.200;2022-11-20T00:25:53;6.20;1.00
296;DHT22;132;48.770;9.200;2022-11-20T00:28:40;6.30;1.00
296;DHT22;132;48.770;9.200;2022-11-20T00:31:28;6.30;1.00
296;DHT22;132;48.770;9.200;2022-11-20T00:34:15;6.30;1.00
296;DHT22;132;48.770;9.200;2022-11-20T00:37:02;6.30;1.00
296;DHT22;132;48.770;9.200;2022-11-20T00:39:48;6.50;1.00
296;DHT22;132;48.770;9.200;2022-11-20T00:42:35;7.30;1.00
296;DHT22;132;48.770;9.200;2022-11-20T00:45:22;6.40;1.00
296;DHT22;132;48.770;9.200;2022-11-20T00:48:08;6.40;1.00
296;DHT22;132;48.770;9.200;2022-11-20T00:50:55;6.40;1.00
296;DHT22;132;48.770;9.200;2022-11-20T00:53:42;6.60;1.00
296;DHT22;132;48.770;9.200;2022-11-20T00:56:29;7.20;1.00
296;DHT22;132;48.770;9.200;2022-11-20T00:59:15;6.50;1.00
296;DHT22;132;48.770;9.200;2022-11-20T01:02:02;6.50;1.00
296;DHT22;132;48.770;9.200;2022-11-20T01:04:48;6.60;1.00
296;DHT22;132;48.770;9.200;2022-11-20T01:07:35;6.60;1.00
296;DHT22;132;48.770;9.200;2022-11-20T01:10:22;6.70;1.00
296;DHT22;132;48.770;9.200;2022-11-20T01:13:08;7.20;1.00
296;DHT22;132;48.770;9.200;2022-11-20T01:16:22;7.10;1.00
296;DHT22;132;48.770;9.200;2022-11-20T01:19:18;6.70;1.00
296;DHT22;132;48.770;9.200;2022-11-20T01:22:04;6.70;1.00
296;DHT22;132;48.770;9.200;2022-11-20T01:24:51;6.90;1.00
296;DHT22;132;48.770;9.200;2022-11-20T01:27:38;6.70;1.00
296;DHT22;132;48.770;9.200;2022-11-20T01:30:24;6.70;1.00
296;DHT22;132;48.770;9.200;2022-11-20T01:33:11;6.70;1.00
296;DHT22;132;48.770;9.200;2022-11-20T01:36:04;6.70;1.00
296;DHT22;132;48.770;9.200;2022-11-20T01:38:53;6.70;1.00
296;DHT22;132;48.770;9.200;2022-11-20T01:41:40;6.70;1.00
296;DHT22;132;48.770;9.200;2022-11-20T01:44:58;6.70;1.00
296;DHT22;132;48.770;9.200;2022-11-20T01:47:46;6.60;1.00
296;DHT22;132;48.770;9.200;2022-11-20T01:50:32;6.60;1.00
296;DHT22;132;48.770;9.200;2022-11-20T01:53:25;6.70;1.00
296;DHT22;132;48.770;9.200;2022-11-20T01:56:14;6.60;1.00
296;DHT22;132;48.770;9.200;2022-11-20T01:59:03;6.60;1.00
296;DHT22;132;48.770;9.200;2022-11-20T02:01:52;6.60;1.00
296;DHT22;132;48.770;9.200;2022-11-20T02:04:38;6.60;1.00
296;DHT22;132;48.770;9.200;2022-11-20T02:07:25;6.80;1.00
296;DHT22;132;48.770;9.200;2022-11-20T02:10:12;6.60;1.00
296;DHT22;132;48.770;9.200;2022-11-20T02:12:59;6.50;1.00
296;DHT22;132;48.770;9.200;2022-11-20T02:16:08;6.70;1.00
296;DHT22;132;48.770;9.200;2022-11-20T02:18:57;6.50;1.00
296;DHT22;132;48.770;9.200;2022-11-20T02:22:14;6.70;1.00
296;DHT22;132;48.770;9.200;2022-11-20T02:25:04;6.60;1.00
296;DHT22;132;48.770;9.200;2022-11-20T02:27:52;6.60;1.00
296;DHT22;132;48.770;9.200;2022-11-20T02:30:39;6.60;1.00
296;DHT22;132;48.770;9.200;2022-11-20T02:33:26;6.50;1.00
296;DHT22;132;48.770;9.200;2022-11-20T02:36:15;6.50;1.00
296;DHT22;132;48.770;9.200;2022-11-20T02:39:03;6.50;1.00
296;DHT22;132;48.770;9.200;2022-11-20T02:41:50;6.40;1.00
296;DHT22;132;48.770;9.200;2022-11-20T02:44:38;6.40;1.00
296;DHT22;132;48.770;9.200;2022-11-20T02:47:25;6.30;1.00
296;DHT22;132;48.770;9.200;2022-11-20T02:50:12;6.40;1.00
296;DHT22;132;48.770;9.200;2022-11-20T02:52:58;6.40;1.00
296;DHT22;132;48.770;9.200;2022-11-20T02:55:45;6.40;1.00
296;DHT22;132;48.770;9.200;2022-11-20T02:58:32;6.60;1.00
296;DHT22;132;48.770;9.200;2022-11-20T03:01:18;6.50;1.00
296;DHT22;132;48.770;9.200;2022-11-20T03:04:05;6.50;1.00
296;DHT22;132;48.770;9.200;2022-11-20T03:06:51;6.50;1.00
296;DHT22;132;48.770;9.200;2022-11-20T03:09:38;6.70;1.00
296;DHT22;132;48.770;9.200;2022-11-20T03:12:25;6.60;1.00
296;DHT22;132;48.770;9.200;2022-11-20T03:15:11;6.60;1.00
296;DHT22;132;48.770;9.200;2022-11-20T03:17:58;6.70;1.00
296;DHT22;132;48.770;9.200;2022-11-20T03:20:45;6.60;1.00
296;DHT22;132;48.770;9.200;2022-11-20T03:23:32;6.70;1.00
296;DHT22;132;48.770;9.200;2022-11-20T03:26:24;6.60;1.00
296;DHT22;132;48.770;9.200;2022-11-20T03:29:11;6.70;1.00
296;DHT22;132;48.770;9.200;2022-11-20T03:31:58;6.70;1.00
296;DHT22;132;48.770;9.200;2022-11-20T03:34:44;6.50;1.00
296;DHT22;132;48.770;9.200;2022-11-20T03:37:32;6.50;1.00
296;DHT22;132;48.770;9.200;2022-11-20T03:40:18;6.40;1.00
296;DHT22;132;48.770;9.200;2022-11-20T03:43:05;6.50;1.00
296;DHT22;132;48.770;9.200;2022-11-20T03:45:51;6.40;1.00
296;DHT22;132;48.770;9.200;2022-11-20T03:48:38;6.30;1.00
296;DHT22;132;48.770;9.200;2022-11-20T03:51:25;6.20;1.00
296;DHT22;132;48.770;9.200;2022-11-20T03:54:12;6.20;1.00
296;DHT22;132;48.770;9.200;2022-11-20T03:56:59;6.20;1.00
296;DHT22;132;48.770;9.200;2022-11-20T03:59:45;6.10;1.00
296;DHT22;132;48.770;9.200;2022-11-20T04:02:32;6.10;1.00
296;DHT22;132;48.770;9.200;2022-11-20T04:05:19;6.10;1.00
296;DHT22;132;48.770;9.200;2022-11-20T04:08:05;6.10;1.00
296;DHT22;132;48.770;9.200;2022-11-20T04:10:52;5.90;1.00
296;DHT22;132;48.770;9.200;2022-11-20T04:13:39;5.90;1.00
296;DHT22;132;48.770;9.200;2022-11-20T04:16:30;5.80;1.00
296;DHT22;132;48.770;9.200;2022-11-20T04:19:16;5.90;1.00
296;DHT22;132;48.770;9.200;2022-11-20T04:22:03;5.80;1.00
296;DHT22;132;48.770;9.200;2022-11-20T04:24:50;5.80;1.00
296;DHT22;132;48.770;9.200;2022-11-20T04:27:36;5.80;1.00
296;DHT22;132;48.770;9.200;2022-11-20T04:30:23;5.80;1.00
296;DHT22;132;48.770;9.200;2022-11-20T04:33:10;5.80;1.00
296;DHT22;132;48.770;9.200;2022-11-20T04:36:01;5.80;1.00
296;DHT22;132;48.770;9.200;2022-11-20T04:38:56;5.80;1.00
296;DHT22;132;48.770;9.200;2022-11-20T04:41:43;5.90;1.00
296;DHT22;132;48.770;9.200;2022-11-20T04:44:29;5.90;1.00
296;DHT22;132;48.770;9.200;2022-11-20T04:47:16;5.80;1.00
296;DHT22;132;48.770;9.200;2022-11-20T04:50:03;5.90;1.00
296;DHT22;132;48.770;9.200;2022-11-20T04:52:49;5.90;1.00
296;DHT22;132;48.770;9.200;2022-11-20T04:55:36;6.20;1.00
296;DHT22;132;48.770;9.200;2022-11-20T04:58:23;6.10;1.00
296;DHT22;132;48.770;9.200;2022-11-20T05:01:15;6.20;1.00
296;DHT22;132;48.770;9.200;2022-11-20T05:04:01;6.40;1.00
296;DHT22;132;48.770;9.200;2022-11-20T05:06:50;6.30;1.00
296;DHT22;132;48.770;9.200;2022-11-20T05:09:37;6.10;1.00
296;DHT22;132;48.770;9.200;2022-11-20T05:12:23;6.30;1.00
296;DHT22;132;48.770;9.200;2022-11-20T05:15:10;6.10;1.00
296;DHT22;132;48.770;9.200;2022-11-20T05:17:56;6.10;1.00
296;DHT22;132;48.770;9.200;2022-11-20T05:20:43;6.30;1.00
296;DHT22;132;48.770;9.200;2022-11-20T05:23:30;6.20;1.00
296;DHT22;132;48.770;9.200;2022-11-20T05:26:20;6.20;1.00
296;DHT22;132;48.770;9.200;2022-11-20T05:29:10;6.20;1.00
296;DHT22;132;48.770;9.200;2022-11-20T05:31:58;6.20;1.00
296;DHT22;132;48.770;9.200;2022-11-20T05:34:44;6.80;1.00
296;DHT22;132;48.770;9.200;2022-11-20T05:37:31;6.30;1.00
296;DHT22;132;48.770;9.200;2022-11-20T05:40:17;6.20;1.00
296;DHT22;132;48.770;9.200;2022-11-20T05:43:04;6.30;1.00
296;DHT22;132;48.770;9.200;2022-11-20T05:45:54;6.50;1.00
296;DHT22;132;48.770;9.200;2022-11-20T05:48:42;6.30;1.00
296;DHT22;132;48.770;9.200;2022-11-20T05:51:28;6.30;1.00
296;DHT22;132;48.770;9.200;2022-11-20T05:54:15;6.30;1.00
296;DHT22;132;48.770;9.200;2022-11-20T05:57:02;6.30;1.00
296;DHT22;132;48.770;9.200;2022-11-20T05:59:48;6.30;1.00
296;DHT22;132;48.770;9.200;2022-11-20T06:02:35;6.30;1.00
296;DHT22;132;48.770;9.200;2022-11-20T06:05:22;6.30;1.00
296;DHT22;132;48.770;9.200;2022-11-20T06:08:09;6.30;1.00
296;DHT22;132;48.770;9.200;2022-11-20T06:10:55;6.30;1.00
296;DHT22;132;48.770;9.200;2022-11-20T06:13:42;6.30;1.00
296;DHT22;132;48.770;9.200;2022-11-20T06:16:29;6.50;1.00
296;DHT22;132;48.770;9.200;2022-11-20T06:19:15;6.50;1.00
296;DHT22;132;48.770;9.200;2022-11-20T06:22:02;5.60;1.00
296;DHT22;132;48.770;9.200;2022-11-20T06:24:49;6.90;1.00
296;DHT22;132;48.770;9.200;2022-11-20T06:27:35;6.40;1.00
296;DHT22;132;48.770;9.200;2022-11-20T06:30:22;6.40;1.00
296;DHT22;132;48.770;9.200;2022-11-20T06:33:09;6.40;1.00
296;DHT22;132;48.770;9.200;2022-11-20T06:35:59;6.50;1.00
296;DHT22;132;48.770;9.200;2022-11-20T06:38:47;6.40;1.00
296;DHT22;132;48.770;9.200;2022-11-20T06:41:33;6.50;1.00
296;DHT22;132;48.770;9.200;2022-11-20T06:44:20;6.40;1.00
296;DHT22;132;48.770;9.200;2022-11-20T06:47:07;6.50;1.00
296;DHT22;132;48.770;9.200;2022-11-20T06:49:53;6.60;1.00
296;DHT22;132;48.770;9.200;2022-11-20T06:52:40;6.60;1.00
296;DHT22;132;48.770;9.200;2022-11-20T06:55:27;6.50;1.00
296;DHT22;132;48.770;9.200;2022-11-20T06:58:14;6.60;1.00
296;DHT22;132;48.770;9.200;2022-11-20T07:01:03;6.50;1.00
296;DHT22;132;48.770;9.200;2022-11-20T07:03:50;6.40;1.00
296;DHT22;132;48.770;9.200;2022-11-20T07:06:37;6.40;1.00
296;DHT22;132;48.770;9.200;2022-11-20T07:09:24;6.40;1.00
296;DHT22;132;48.770;9.200;2022-11-20T07:12:10;6.40;1.00
296;DHT22;132;48.770;9.200;2022-11-20T07:14:57;6.40;1.00
296;DHT22;132;48.770;9.200;2022-11-20T07:17:44;6.50;1.00
296;DHT22;132;48.770;9.200;2022-11-20T07:20:30;6.50;1.00
296;DHT22;132;48.770;9.200;2022-11-20T07:23:17;6.60;1.00
296;DHT22;132;48.770;9.200;2022-11-20T07:26:09;6.60;1.00
296;DHT22;132;48.770;9.200;2022-11-20T07:28:56;6.80;1.00
296;DHT22;132;48.770;9.200;2022-11-20T07:31:43;6.60;1.00
296;DHT22;132;48.770;9.200;2022-11-20T07:34:29;6.70;1.00
296;DHT22;132;48.770;9.200;2022-11-20T07:37:16;6.70;1.00
296;DHT22;132;48.770;9.200;2022-11-20T07:40:03;6.70;1.00
296;DHT22;132;48.770;9.200;2022-11-20T07:42:51;6.80;1.00
296;DHT22;132;48.770;9.200;2022-11-20T07:45:38;6.80;1.00
296;DHT22;132;48.770;9.200;2022-11-20T07:48:25;6.90;1.00
296;DHT22;132;48.770;9.200;2022-11-20T07:51:11;6.80;1.00
296;DHT22;132;48.770;9.200;2022-11-20T07:53:58;6.90;1.00
296;DHT22;132;48.770;9.200;2022-11-20T07:56:45;7.00;1.00
296;DHT22;132;48.770;9.200;2022-11-20T07:59:31;7.00;1.00
296;DHT22;132;48.770;9.200;2022-11-20T08:02:18;7.30;1.00
296;DHT22;132;48.770;9.200;2022-11-20T08:05:08;7.10;1.00
296;DHT22;132;48.770;9.200;2022-11-20T08:07:55;7.10;1.00
296;DHT22;132;48.770;9.200;2022-11-20T08:10:41;7.30;1.00
296;DHT22;132;48.770;9.200;2022-11-20T08:13:28;7.20;1.00
296;DHT22;132;48.770;9.200;2022-11-20T08:16:45;7.30;1.00
296;DHT22;132;48.770;9.200;2022-11-20T08:19:32;7.30;1.00
296;DHT22;132;48.770;9.200;2022-11-20T08:22:19;7.30;1.00
296;DHT22;132;48.770;9.200;2022-11-20T08:25:07;7.30;1.00
296;DHT22;132;48.770;9.200;2022-11-20T08:27:53;7.30;1.00
296;DHT22;132;48.770;9.200;2022-11-20T08:30:40;7.40;1.00
296;DHT22;132;48.770;9.200;2022-11-20T08:33:27;7.40;1.00
296;DHT22;132;48.770;9.200;2022-11-20T08:36:14;7.40;1.00
296;DHT22;132;48.770;9.200;2022-11-20T08:39:01;7.50;1.00
296;DHT22;132;48.770;9.200;2022-11-20T08:41:47;7.50;1.00
296;DHT22;132;48.770;9.200;2022-11-20T08:44:34;7.40;1.00
296;DHT22;132;48.770;9.200;2022-11-20T08:47:21;7.40;1.00
296;DHT22;132;48.770;9.200;2022-11-20T08:50:09;7.50;1.00
296;DHT22;132;48.770;9.200;2022-11-20T08:53:04;7.60;1.00
296;DHT22;132;48.770;9.200;2022-11-20T08:55:51;7.70;1.00
296;DHT22;132;48.770;9.200;2022-11-20T08:58:38;7.90;1.00
296;DHT22;132;48.770;9.200;2022-11-20T09:01:25;7.90;1.00
296;DHT22;132;48.770;9.200;2022-11-20T09:04:12;8.10;1.00
296;DHT22;132;48.770;9.200;2022-11-20T09:07:00;8.10;1.00
296;DHT22;132;48.770;9.200;2022-11-20T09:09:47;8.10;1.00
296;DHT22;132;48.770;9.200;2022-11-20T09:12:34;8.20;1.00
296;DHT22;132;48.770;9.200;2022-11-20T09:15:21;8.10;1.00
296;DHT22;132;48.770;9.200;2022-11-20T09:18:08;8.10;1.00
296;DHT22;132;48.770;9.200;2022-11-20T09:20:58;8.20;1.00
296;DHT22;132;48.770;9.200;2022-11-20T09:23:45;8.30;1.00
296;DHT22;132;48.770;9.200;2022-11-20T09:26:33;8.20;1.00
296;DHT22;132;48.770;9.200;2022-11-20T09:29:19;8.20;1.00
296;DHT22;132;48.770;9.200;2022-11-20T09:32:06;8.20;1.00
296;DHT22;132;48.770;9.200;2022-11-20T09:34:52;8.20;1.00
296;DHT22;132;48.770;9.200;2022-11-20T09:37:39;8.20;1.00
296;DHT22;132;48.770;9.200;2022-11-20T09:40:27;8.20;1.00
296;DHT22;132;48.770;9.200;2022-11-20T09:43:50;8.20;1.00
296;DHT22;132;48.770;9.200;2022-11-20T09:53:16;8.20;1.00
296;DHT22;132;48.770;9.200;2022-11-20T09:56:08;8.30;1.00
296;DHT22;132;48.770;9.200;2022-11-20T09:59:02;8.30;1.00
296;DHT22;132;48.770;9.200;2022-11-20T10:01:50;8.40;1.00
296;DHT22;132;48.770;9.200;2022-11-20T10:04:39;8.30;1.00
296;DHT22;132;48.770;9.200;2022-11-20T10:10:52;8.20;1.00
296;DHT22;132;48.770;9.200;2022-11-20T10:14:07;8.20;1.00
296;DHT22;132;48.770;9.200;2022-11-20T10:26:26;8.10;1.00
296;DHT22;132;48.770;9.200;2022-11-20T10:29:19;8.20;1.00
296;DHT22;132;48.770;9.200;2022-11-20T10:32:14;8.10;1.00
296;DHT22;132;48.770;9.200;2022-11-20T10:35:16;8.10;1.00
296;DHT22;132;48.770;9.200;2022-11-20T10:38:19;8.00;1.00
296;DHT22;132;48.770;9.200;2022-11-20T10:41:19;8.10;1.00
296;DHT22;132;48.770;9.200;2022-11-20T10:44:20;7.90;1.00
296;DHT22;132;48.770;9.200;2022-11-20T10:47:25;7.80;1.00
296;DHT22;132;48.770;9.200;2022-11-20T10:50:18;7.70;1.00
296;DHT22;132;48.770;9.200;2022-11-20T10:56:53;7.70;1.00
296;DHT22;132;48.770;9.200;2022-11-20T10:59:41;7.60;1.00
296;DHT22;132;48.770;9.200;2022-11-20T11:02:34;7.60;1.00
296;DHT22;132;48.770;9.200;2022-11-20T11:05:44;7.70;1.00
296;DHT22;132;48.770;9.200;2022-11-20T11:08:39;7.70;1.00
296;DHT22;132;48.770;9.200;2022-11-20T11:11:30;7.80;1.00
296;DHT22;132;48.770;9.200;2022-11-20T11:14:18;8.30;1.00
296;DHT22;132;48.770;9.200;2022-11-20T11:17:17;7.80;1.00
296;DHT22;132;48.770;9.200;2022-11-20T11:20:06;7.80;1.00
296;DHT22;132;48.770;9.200;2022-11-20T11:22:55;7.80;1.00
296;DHT22;132;48.770;9.200;2022-11-20T11:25:57;8.00;1.00
296;DHT22;132;48.770;9.200;2022-11-20T11:29:00;8.00;1.00
296;DHT22;132;48.770;9.200;2022-11-20T11:31:47;8.00;1.00
296;DHT22;132;48.770;9.200;2022-11-20T11:34:34;8.00;1.00
296;DHT22;132;48.770;9.200;2022-11-20T11:37:21;8.10;1.00
296;DHT22;132;48.770;9.200;2022-11-20T11:40:11;8.00;1.00
296;DHT22;132;48.770;9.200;2022-11-20T11:43:01;7.90;1.00
296;DHT22;132;48.770;9.200;2022-11-20T11:45:55;7.80;1.00
296;DHT22;132;48.770;9.200;2022-11-20T11:48:42;7.80;1.00
296;DHT22;132;48.770;9.200;2022-11-20T11:51:34;7.70;1.00
296;DHT22;132;48.770;9.200;2022-11-20T12:00:21;7.80;1.00
296;DHT22;132;48.770;9.200;2022-11-20T12:03:35;7.80;1.00
296;DHT22;132;48.770;9.200;2022-11-20T12:06:23;7.70;1.00
296;DHT22;132;48.770;9.200;2022-11-20T12:09:12;7.80;1.00
296;DHT22;132;48.770;9.200;2022-11-20T12:12:08;8.00;1.00
296;DHT22;132;48.770;9.200;2022-11-20T12:14:56;7.70;1.00
296;DHT22;132;48.770;9.200;2022-11-20T12:17:44;7.70;1.00
296;DHT22;132;48.770;9.200;2022-11-20T12:20:37;7.80;1.00
296;DHT22;132;48.770;9.200;2022-11-20T12:38:42;8.60;1.00
296;DHT22;132;48.770;9.200;2022-11-20T12:54:14;8.70;1.00
296;DHT22;132;48.770;9.200;2022-11-20T13:00:23;8.80;1.00
296;DHT22;132;48.770;9.200;2022-11-20T13:06:16;8.80;1.00
296;DHT22;132;48.770;9.200;2022-11-20T13:09:09;8.90;1.00
296;DHT22;132;48.770;9.200;2022-11-20T13:12:05;9.10;1.00
296;DHT22;132;48.770;9.200;2022-11-20T13:17:54;9.20;1.00
296;DHT22;132;48.770;9.200;2022-11-20T13:20:43;9.20;1.00
296;DHT22;132;48.770;9.200;2022-11-20T13:23:30;9.20;1.00
296;DHT22;132;48.770;9.200;2022-11-20T13:26:22;9.30;1.00
296;DHT22;132;48.770;9.200;2022-11-20T13:29:16;9.40;1.00
296;DHT22;132;48.770;9.200;2022-11-20T13:37:44;9.10;1.00
296;DHT22;132;48.770;9.200;2022-11-20T13:40:31;9.10;1.00
296;DHT22;132;48.770;9.200;2022-11-20T13:43:40;8.90;1.00
296;DHT22;132;48.770;9.200;2022-11-20T13:46:38;8.70;1.00
296;DHT22;132;48.770;9.200;2022-11-20T13:49:38;8.60;1.00
296;DHT22;132;48.770;9.200;2022-11-20T14:01:37;8.70;1.00
296;DHT22;132;48.770;9.200;2022-11-20T14:04:30;8.70;1.00
296;DHT22;132;48.770;9.200;2022-11-20T14:07:23;8.70;1.00
296;DHT22;132;48.770;9.200;2022-11-20T14:10:31;8.70;1.00
296;DHT22;132;48.770;9.200;2022-11-20T14:13:19;8.70;1.00
296;DHT22;132;48.770;9.200;2022-11-20T14:16:08;8.70;1.00
296;DHT22;132;48.770;9.200;2022-11-20T14:18:56;8.30;1.00
296;DHT22;132;48.770;9.200;2022-11-20T14:21:43;8.20;1.00
296;DHT22;132;48.770;9.200;2022-11-20T14:24:30;8.30;1.00
296;DHT22;132;48.770;9.200;2022-11-20T14:27:20;8.10;1.00
296;DHT22;132;48.770;9.200;2022-11-20T14:30:15;8.00;1.00
296;DHT22;132;48.770;9.200;2022-11-20T14:33:03;8.00;1.00
296;DHT22;132;48.770;9.200;2022-11-20T14:35:55;8.00;1.00
296;DHT22;132;48.770;9.200;2022-11-20T14:38:43;8.00;1.00
296;DHT22;132;48.770;9.200;2022-11-20T14:41:30;8.00;1.00
296;DHT22;132;48.770;9.200;2022-11-20T14:44:32;7.90;1.00
296;DHT22;132;48.770;9.200;2022-11-20T14:47:30;7.90;1.00
296;DHT22;132;48.770;9.200;2022-11-20T14:50:26;8.00;1.00
296;DHT22;132;48.770;9.200;2022-11-20T14:53:22;8.20;1.00
296;DHT22;132;48.770;9.200;2022-11-20T14:56:09;8.00;1.00
296;DHT22;132;48.770;9.200;2022-11-20T14:58:59;8.00;1.00
296;DHT22;132;48.770;9.200;2022-11-20T15:04:46;7.80;1.00
296;DHT22;132;48.770;9.200;2022-11-20T15:10:25;7.80;1.00
296;DHT22;132;48.770;9.200;2022-11-20T15:13:37;7.70;1.00
296;DHT22;132;48.770;9.200;2022-11-20T15:16:23;7.90;1.00
296;DHT22;132;48.770;9.200;2022-11-20T15:19:22;7.60;1.00
296;DHT22;132;48.770;9.200;2022-11-20T15:22:12;7.50;1.00
296;DHT22;132;48.770;9.200;2022-11-20T15:25:12;7.40;1.00
296;DHT22;132;48.770;9.200;2022-11-20T15:27:59;7.10;1.00
296;DHT22;132;48.770;9.200;2022-11-20T15:30:47;7.40;1.00
296;DHT22;132;48.770;9.200;2022-11-20T15:33:34;7.30;1.00
296;DHT22;132;48.770;9.200;2022-11-20T15:36:21;7.20;1.00
296;DHT22;132;48.770;9.200;2022-11-20T15:39:08;7.40;1.00
296;DHT22;132;48.770;9.200;2022-11-20T15:41:54;7.10;1.00
296;DHT22;132;48.770;9.200;2022-11-20T15:44:41;7.00;1.00
296;DHT22;132;48.770;9.200;2022-11-20T15:47:31;7.00;1.00
296;DHT22;132;48.770;9.200;2022-11-20T15:50:19;6.90;1.00
296;DHT22;132;48.770;9.200;2022-11-20T15:53:05;7.10;1.00
296;DHT22;132;48.770;9.200;2022-11-20T15:55:52;7.40;1.00
296;DHT22;132;48.770;9.200;2022-11-20T15:58:39;6.90;1.00
296;DHT22;132;48.770;9.200;2022-11-20T16:01:26;6.80;1.00
296;DHT22;132;48.770;9.200;2022-11-20T16:04:15;7.20;1.00
296;DHT22;132;48.770;9.200;2022-11-20T16:07:03;7.10;1.00
296;DHT22;132;48.770;9.200;2022-11-20T16:09:50;7.10;1.00
296;DHT22;132;48.770;9.200;2022-11-20T16:12:36;6.70;1.00
296;DHT22;132;48.770;9.200;2022-11-20T16:15:41;6.80;1.00
296;DHT22;132;48.770;9.200;2022-11-20T16:18:31;6.80;1.00
296;DHT22;132;48.770;9.200;2022-11-20T16:21:18;6.90;1.00
296;DHT22;132;48.770;9.200;2022-11-20T16:24:06;6.80;1.00
296;DHT22;132;48.770;9.200;2022-11-20T16:26:54;6.80;1.00
296;DHT22;132;48.770;9.200;2022-11-20T16:29:40;6.90;1.00
296;DHT22;132;48.770;9.200;2022-11-20T16:32:27;6.80;1.00
296;DHT22;132;48.770;9.200;2022-11-20T16:35:14;7.10;1.00
296;DHT22;132;48.770;9.200;2022-11-20T16:38:01;6.30;1.00
296;DHT22;132;48.770;9.200;2022-11-20T16:40:47;6.90;1.00
296;DHT22;132;48.770;9.200;2022-11-20T16:43:34;6.90;1.00
296;DHT22;132;48.770;9.200;2022-11-20T16:46:22;7.00;1.00
296;DHT22;132;48.770;9.200;2022-11-20T16:49:13;7.50;1.00
296;DHT22;132;48.770;9.200;2022-11-20T16:52:00;7.50;1.00
296;DHT22;132;48.770;9.200;2022-11-20T16:54:47;7.00;1.00
296;DHT22;132;48.770;9.200;2022-11-20T16:57:33;7.00;1.00
296;DHT22;132;48.770;9.200;2022-11-20T17:00:20;7.30;1.00
296;DHT22;132;48.770;9.200;2022-11-20T17:03:07;7.00;1.00
296;DHT22;132;48.770;9.200;2022-11-20T17:05:54;7.10;1.00
296;DHT22;132;48.770;9.200;2022-11-20T17:08:41;7.10;1.00
296;DHT22;132;48.770;9.200;2022-11-20T17:11:28;7.30;1.00
296;DHT22;132;48.770;9.200;2022-11-20T17:14:15;7.10;1.00
296;DHT22;132;48.770;9.200;2022-11-20T17:17:01;7.10;1.00
296;DHT22;132;48.770;9.200;2022-11-20T17:19:48;7.10;1.00
296;DHT22;132;48.770;9.200;2022-11-20T17:22:35;7.20;1.00
296;DHT22;132;48.770;9.200;2022-11-20T17:25:22;7.10;1.00
296;DHT22;132;48.770;9.200;2022-11-20T17:28:08;7.20;1.00
296;DHT22;132;48.770;9.200;2022-11-20T17:31:10;7.20;1.00
296;DHT22;132;48.770;9.200;2022-11-20T17:33:57;7.20;1.00
296;DHT22;132;48.770;9.200;2022-11-20T17:36:45;7.20;1.00
296;DHT22;132;48.770;9.200;2022-11-20T17:39:32;7.20;1.00
296;DHT22;132;48.770;9.200;2022-11-20T17:42:19;7.20;1.00
296;DHT22;132;48.770;9.200;2022-11-20T17:45:22;7.20;1.00
296;DHT22;132;48.770;9.200;2022-11-20T17:48:09;7.20;1.00
296;DHT22;132;48.770;9.200;2022-11-20T17:50:59;7.20;1.00
296;DHT22;132;48.770;9.200;2022-11-20T17:53:49;7.20;1.00
296;DHT22;132;48.770;9.200;2022-11-20T17:56:36;7.20;1.00
296;DHT22;132;48.770;9.200;2022-11-20T17:59:42;7.20;1.00
296;DHT22;132;48.770;9.200;2022-11-20T18:02:28;7.20;1.00
296;DHT22;132;48.770;9.200;2022-11-20T18:05:15;7.50;1.00
296;DHT22;132;48.770;9.200;2022-11-20T18:08:02;7.20;1.00
296;DHT22;132;48.770;9.200;2022-11-20T18:10:49;7.70;1.00
296;DHT22;132;48.770;9.200;2022-11-20T18:13:35;7.40;1.00
296;DHT22;132;48.770;9.200;2022-11-20T18:16:52;7.30;1.00
296;DHT22;132;48.770;9.200;2022-11-20T18:19:41;7.30;1.00
296;DHT22;132;48.770;9.200;2022-11-20T18:22:29;7.30;1.00
296;DHT22;132;48.770;9.200;2022-11-20T18:25:15;7.30;1.00
296;DHT22;132;48.770;9.200;2022-11-20T18:28:03;7.30;1.00
296;DHT22;132;48.770;9.200;2022-11-20T18:30:50;7.40;1.00
296;DHT22;132;48.770;9.200;2022-11-20T18:33:37;7.50;1.00
296;DHT22;132;48.770;9.200;2022-11-20T18:36:28;7.30;1.00
296;DHT22;132;48.770;9.200;2022-11-20T18:39:15;7.30;1.00
296;DHT22;132;48.770;9.200;2022-11-20T18:42:04;7.50;1.00
296;DHT22;132;48.770;9.200;2022-11-20T18:45:09;7.60;1.00
296;DHT22;132;48.770;9.200;2022-11-20T18:47:57;7.60;1.00
296;DHT22;132;48.770;9.200;2022-11-20T18:50:44;7.10;1.00
296;DHT22;132;48.770;9.200;2022-11-20T18:53:34;7.20;1.00
296;DHT22;132;48.770;9.200;2022-11-20T18:56:21;7.40;1.00
296;DHT22;132;48.770;9.200;2022-11-20T18:59:09;7.40;1.00
296;DHT22;132;48.770;9.200;2022-11-20T19:01:59;7.60;1.00
296;DHT22;132;48.770;9.200;2022-11-20T19:04:46;7.00;1.00
296;DHT22;132;48.770;9.200;2022-11-20T19:07:33;6.80;1.00
296;DHT22;132;48.770;9.200;2022-11-20T19:10:20;7.40;1.00
296;DHT22;132;48.770;9.200;2022-11-20T19:13:09;7.00;1.00
296;DHT22;132;48.770;9.200;2022-11-20T19:16:01;6.70;1.00
296;DHT22;132;48.770;9.200;2022-11-20T19:18:48;6.60;1.00
296;DHT22;132;48.770;9.200;2022-11-20T19:21:35;6.60;1.00
296;DHT22;132;48.770;9.200;2022-11-20T19:24:22;6.50;1.00
296;DHT22;132;48.770;9.200;2022-11-20T19:27:09;6.50;1.00
296;DHT22;132;48.770;9.200;2022-11-20T19:29:55;6.90;1.00
296;DHT22;132;48.770;9.200;2022-11-20T19:32:48;6.30;1.00
296;DHT22;132;48.770;9.200;2022-11-20T19:35:35;6.50;1.00
296;DHT22;132;48.770;9.200;2022-11-20T19:38:22;6.30;1.00
296;DHT22;132;48.770;9.200;2022-11-20T19:41:09;6.30;1.00
296;DHT22;132;48.770;9.200;2022-11-20T19:43:57;6.30;1.00
296;DHT22;132;48.770;9.200;2022-11-20T19:46:44;6.30;1.00
296;DHT22;132;48.770;9.200;2022-11-20T19:49:31;6.70;1.00
296;DHT22;132;48.770;9.200;2022-11-20T19:52:18;6.30;1.00
296;DHT22;132;48.770;9.200;2022-11-20T19:55:04;6.30;1.00
296;DHT22;132;48.770;9.200;2022-11-20T19:57:51;6.30;1.00
296;DHT22;132;48.770;9.200;2022-11-20T20:00:38;6.50;1.00
296;DHT22;132;48.770;9.200;2022-11-20T20:03:25;6.20;1.00
296;DHT22;132;48.770;9.200;2022-11-20T20:06:33;6.20;1.00
296;DHT22;132;48.770;9.200;2022-11-20T20:09:20;7.00;1.00
296;DHT22;132;48.770;9.200;2022-11-20T20:12:09;6.20;1.00
296;DHT22;132;48.770;9.200;2022-11-20T20:14:55;6.20;1.00
296;DHT22;132;48.770;9.200;2022-11-20T20:17:42;6.20;1.00
296;DHT22;132;48.770;9.200;2022-11-20T20:20:29;6.20;1.00
296;DHT22;132;48.770;9.200;2022-11-20T20:23:15;6.30;1.00
296;DHT22;132;48.770;9.200;2022-11-20T20:26:04;6.20;1.00
296;DHT22;132;48.770;9.200;2022-11-20T20:28:51;6.20;1.00
296;DHT22;132;48.770;9.200;2022-11-20T20:31:39;6.10;1.00
296;DHT22;132;48.770;9.200;2022-11-20T20:34:26;6.10;1.00
296;DHT22;132;48.770;9.200;2022-11-20T20:37:15;6.10;1.00
296;DHT22;132;48.770;9.200;2022-11-20T20:40:02;6.10;1.00
296;DHT22;132;48.770;9.200;2022-11-20T20:42:48;6.20;1.00
296;DHT22;132;48.770;9.200;2022-11-20T20:45:35;7.50;1.00
296;DHT22;132;48.770;9.200;2022-11-20T20:48:24;6.10;1.00
296;DHT22;132;48.770;9.200;2022-11-20T20:51:10;6.30;1.00
296;DHT22;132;48.770;9.200;2022-11-20T20:53:57;6.00;1.00
296;DHT22;132;48.770;9.200;2022-11-20T20:56:44;5.90;1.00
296;DHT22;132;48.770;9.200;2022-11-20T20:59:31;6.00;1.00
296;DHT22;132;48.770;9.200;2022-11-20T21:02:18;5.90;1.00
296;DHT22;132;48.770;9.200;2022-11-20T21:05:06;5.90;1.00
296;DHT22;132;48.770;9.200;2022-11-20T21:07:52;5.90;1.00